Wetterdaten: Woche 21.03.05 - 27.03.05 (KW12)
Datum Zeit Temperatur Luftfeuchte Luftdruck Niederschlag Windrichtung Wind
21.03.2005 00:00 5,5 C 81 % 1018 hPa 0,0 l/m NO 11,8 km/h (2 Bft)
21.03.2005 01:00 4,9 C 85 % 1018 hPa 0,0 l/m NO 11,2 km/h (2 Bft)
21.03.2005 02:00 4,4 C 88 % 1018 hPa 0,0 l/m NO 12,1 km/h (2 Bft)
21.03.2005 03:00 4,2 C 90 % 1017 hPa 0,0 l/m N 12,8 km/h (3 Bft)
21.03.2005 04:00 4,1 C 93 % 1017 hPa 0,0 l/m N 12,8 km/h (3 Bft)
21.03.2005 05:00 4,0 C 95 % 1017 hPa 0,0 l/m N 10,5 km/h (2 Bft)
21.03.2005 06:00 4,0 C 96 % 1017 hPa 0,0 l/m N 11,4 km/h (2 Bft)
21.03.2005 07:00 4,0 C 95 % 1017 hPa 0,0 l/m N 12,2 km/h (2 Bft)
21.03.2005 08:00 4,6 C 91 % 1017 hPa 0,0 l/m N 10,6 km/h (2 Bft)
21.03.2005 09:00 7,2 C 77 % 1018 hPa 0,0 l/m N 9,8 km/h (2 Bft)
21.03.2005 10:00 9,7 C 64 % 1018 hPa 0,0 l/m N 10,6 km/h (2 Bft)
21.03.2005 11:00 11,1 C 59 % 1017 hPa 0,0 l/m N 13,7 km/h (3 Bft)
21.03.2005 12:00 12,4 C 54 % 1017 hPa 0,0 l/m NO 17,8 km/h (3 Bft)
21.03.2005 13:00 14,1 C 48 % 1016 hPa 0,0 l/m N 18,5 km/h (3 Bft)
21.03.2005 14:00 14,3 C 47 % 1016 hPa 0,0 l/m N-NO 18,4 km/h (3 Bft)
21.03.2005 15:00 13,8 C 46 % 1016 hPa 0,0 l/m N-NO 17,0 km/h (3 Bft)
21.03.2005 16:00 13,3 C 46 % 1015 hPa 0,0 l/m N 17,4 km/h (3 Bft)
21.03.2005 17:00 12,5 C 45 % 1015 hPa 0,0 l/m N 15,0 km/h (3 Bft)
21.03.2005 18:00 10,6 C 49 % 1015 hPa 0,0 l/m N 12,0 km/h (2 Bft)
21.03.2005 19:00 8,8 C 53 % 1015 hPa 0,0 l/m N 11,2 km/h (2 Bft)
21.03.2005 20:00 7,3 C 55 % 1015 hPa 0,0 l/m NW 9,3 km/h (2 Bft)
21.03.2005 21:00 6,0 C 59 % 1015 hPa 0,0 l/m NW 9,9 km/h (2 Bft)
21.03.2005 22:00 4,6 C 64 % 1016 hPa 0,0 l/m W-NW 8,0 km/h (2 Bft)
21.03.2005 23:00 3,6 C 70 % 1016 hPa 0,0 l/m W-NW 9,8 km/h (2 Bft)
22.03.2005 00:00 2,9 C 74 % 1015 hPa 0,0 l/m W-NW 6,9 km/h (2 Bft)
22.03.2005 01:00 2,4 C 77 % 1015 hPa 0,0 l/m W-NW 7,8 km/h (2 Bft)
22.03.2005 02:00 1,9 C 80 % 1015 hPa 0,0 l/m W-NW 7,4 km/h (2 Bft)
22.03.2005 03:00 1,5 C 81 % 1015 hPa 0,0 l/m W-NW 9,9 km/h (2 Bft)
22.03.2005 04:00 0,9 C 82 % 1015 hPa 0,0 l/m W-NW 7,1 km/h (2 Bft)
22.03.2005 05:00 0,5 C 83 % 1015 hPa 0,0 l/m W-NW 9,1 km/h (2 Bft)
22.03.2005 06:00 0,3 C 82 % 1014 hPa 0,0 l/m NW 9,6 km/h (2 Bft)
22.03.2005 07:00 0,8 C 81 % 1014 hPa 0,0 l/m NW 6,6 km/h (2 Bft)
22.03.2005 08:00 2,4 C 76 % 1014 hPa 0,0 l/m NW 9,5 km/h (2 Bft)
22.03.2005 09:00 5,7 C 66 % 1014 hPa 0,0 l/m N-NW 8,5 km/h (2 Bft)
22.03.2005 10:00 8,0 C 60 % 1015 hPa 0,0 l/m N-NW 8,5 km/h (2 Bft)
22.03.2005 11:00 10,8 C 54 % 1014 hPa 0,0 l/m N-NW 4,6 km/h (1 Bft)
22.03.2005 12:00 12,8 C 51 % 1014 hPa 0,0 l/m O 1,2 km/h (1 Bft)
22.03.2005 13:00 14,6 C 49 % 1014 hPa 0,0 l/m S-SO 5,7 km/h (1 Bft)
22.03.2005 14:00 15,5 C 47 % 1014 hPa 0,0 l/m S-SO 8,0 km/h (2 Bft)
22.03.2005 15:00 14,8 C 49 % 1014 hPa 0,0 l/m SO 11,2 km/h (2 Bft)
22.03.2005 16:00 14,1 C 54 % 1014 hPa 0,0 l/m S-SO 10,0 km/h (2 Bft)
22.03.2005 17:00 13,3 C 59 % 1015 hPa 0,0 l/m S 8,3 km/h (2 Bft)
22.03.2005 18:00 12,5 C 62 % 1016 hPa 0,0 l/m O-SO 0,4 km/h (0 Bft)
22.03.2005 19:00 11,9 C 67 % 1016 hPa 0,0 l/m O-NO 3,1 km/h (1 Bft)
22.03.2005 20:00 11,1 C 73 % 1017 hPa 0,0 l/m S 2,7 km/h (1 Bft)
22.03.2005 21:00 10,6 C 85 % 1018 hPa 0,0 l/m S 8,7 km/h (2 Bft)
22.03.2005 22:00 9,4 C 94 % 1019 hPa 0,0 l/m S-SO 11,4 km/h (2 Bft)
22.03.2005 23:00 9,3 C 98 % 1019 hPa 0,0 l/m S-SO 8,6 km/h (2 Bft)
23.03.2005 00:00 9,3 C 99 % 1019 hPa 0,0 l/m N-NO 0,0 km/h (0 Bft)
23.03.2005 13:00 15,4 C 62 % 1019 hPa 1,0 l/m N-NW 15,4 km/h (3 Bft)
23.03.2005 14:00 15,9 C 58 % 1019 hPa 0,0 l/m N 14,8 km/h (3 Bft)
23.03.2005 15:00 15,9 C 58 % 1018 hPa 0,0 l/m N 14,9 km/h (3 Bft)
23.03.2005 16:00 15,7 C 60 % 1018 hPa 0,0 l/m N 17,4 km/h (3 Bft)
23.03.2005 17:00 15,5 C 59 % 1018 hPa 0,0 l/m NO 16,7 km/h (3 Bft)
23.03.2005 18:00 14,1 C 67 % 1018 hPa 0,0 l/m N 10,9 km/h (2 Bft)
23.03.2005 19:00 12,6 C 74 % 1018 hPa 0,0 l/m N 11,1 km/h (2 Bft)
23.03.2005 20:00 11,4 C 79 % 1018 hPa 0,0 l/m N 8,3 km/h (2 Bft)
23.03.2005 21:00 10,4 C 85 % 1018 hPa 0,0 l/m N 9,5 km/h (2 Bft)
23.03.2005 22:00 9,8 C 91 % 1018 hPa 0,0 l/m N-NW 9,9 km/h (2 Bft)
23.03.2005 23:00 9,3 C 94 % 1018 hPa 0,0 l/m NW 5,1 km/h (1 Bft)
24.03.2005 00:00 9,3 C 96 % 1018 hPa 0,0 l/m N 9,6 km/h (2 Bft)
24.03.2005 01:00 9,7 C 95 % 1018 hPa 0,0 l/m N 9,6 km/h (2 Bft)
24.03.2005 02:00 9,7 C 94 % 1017 hPa 0,0 l/m N 8,1 km/h (2 Bft)
24.03.2005 03:00 9,5 C 94 % 1017 hPa 0,0 l/m N 6,6 km/h (2 Bft)
24.03.2005 04:00 9,3 C 95 % 1017 hPa 0,0 l/m N 4,1 km/h (1 Bft)
24.03.2005 05:00 9,1 C 96 % 1017 hPa 0,0 l/m N-NW 1,9 km/h (1 Bft)
24.03.2005 06:00 8,7 C 96 % 1018 hPa 0,0 l/m W-NW 1,9 km/h (1 Bft)
24.03.2005 07:00 8,6 C 98 % 1018 hPa 0,0 l/m N 0,0 km/h (0 Bft)
24.03.2005 08:00 9,0 C 97 % 1018 hPa 0,0 l/m NO 0,6 km/h (0 Bft)
24.03.2005 09:00 9,6 C 94 % 1019 hPa 0,0 l/m NO 1,9 km/h (1 Bft)
24.03.2005 10:00 10,5 C 87 % 1019 hPa 0,0 l/m N 1,5 km/h (1 Bft)
24.03.2005 11:00 11,8 C 78 % 1019 hPa 0,0 l/m NO 5,2 km/h (1 Bft)
24.03.2005 12:00 13,3 C 72 % 1018 hPa 0,0 l/m O-NO 5,3 km/h (1 Bft)
24.03.2005 13:00 15,4 C 65 % 1018 hPa 0,0 l/m W-NW 7,0 km/h (2 Bft)
24.03.2005 14:00 17,1 C 57 % 1018 hPa 0,0 l/m NO 6,5 km/h (2 Bft)
24.03.2005 15:00 17,2 C 57 % 1017 hPa 0,0 l/m NO 5,7 km/h (1 Bft)
24.03.2005 16:00 16,4 C 63 % 1017 hPa 0,0 l/m N 10,0 km/h (2 Bft)
24.03.2005 17:00 14,7 C 70 % 1017 hPa 0,0 l/m N 11,7 km/h (2 Bft)
24.03.2005 18:00 13,2 C 76 % 1017 hPa 0,0 l/m N-NW 9,1 km/h (2 Bft)
24.03.2005 19:00 11,6 C 82 % 1018 hPa 0,0 l/m NW 9,7 km/h (2 Bft)
24.03.2005 20:00 10,4 C 87 % 1018 hPa 0,0 l/m NW 6,1 km/h (2 Bft)
24.03.2005 21:00 9,8 C 89 % 1018 hPa 0,0 l/m NW 7,3 km/h (2 Bft)
24.03.2005 22:00 9,2 C 91 % 1018 hPa 0,0 l/m NW 4,2 km/h (1 Bft)
24.03.2005 23:00 9,1 C 94 % 1019 hPa 0,0 l/m S-SO 8,0 km/h (2 Bft)
25.03.2005 00:00 9,7 C 95 % 1019 hPa 7,0 l/m SW 19,9 km/h (4 Bft)
25.03.2005 01:00 9,6 C 96 % 1019 hPa 1,0 l/m S-SW 12,5 km/h (3 Bft)
25.03.2005 02:00 9,1 C 93 % 1019 hPa 0,0 l/m SW 10,0 km/h (2 Bft)
25.03.2005 03:00 8,9 C 95 % 1019 hPa 1,0 l/m S-SW 9,1 km/h (2 Bft)
25.03.2005 04:00 8,9 C 98 % 1018 hPa 0,0 l/m S-SW 3,1 km/h (1 Bft)
25.03.2005 05:00 8,8 C 100 % 1019 hPa 1,0 l/m S 3,0 km/h (1 Bft)
25.03.2005 06:00 8,6 C 100 % 1019 hPa 0,0 l/m N 0,1 km/h (0 Bft)
25.03.2005 07:00 8,8 C 100 % 1019 hPa 1,0 l/m S-SO 7,2 km/h (2 Bft)
25.03.2005 08:00 8,8 C 100 % 1019 hPa 1,0 l/m S-SO 10,4 km/h (2 Bft)
25.03.2005 09:00 9,3 C 100 % 1019 hPa 0,0 l/m SW 3,6 km/h (1 Bft)
25.03.2005 10:00 10,1 C 99 % 1019 hPa 0,0 l/m W-SW 9,8 km/h (2 Bft)
25.03.2005 11:00 11,6 C 81 % 1019 hPa 0,0 l/m W-SW 12,1 km/h (2 Bft)
25.03.2005 12:00 12,9 C 68 % 1018 hPa 0,0 l/m W-SW 11,6 km/h (2 Bft)
25.03.2005 13:00 12,9 C 67 % 1018 hPa 0,0 l/m W-SW 6,8 km/h (2 Bft)
25.03.2005 14:00 13,8 C 62 % 1018 hPa 0,0 l/m W-NW 5,2 km/h (1 Bft)
25.03.2005 15:00 14,4 C 57 % 1017 hPa 0,0 l/m N 5,3 km/h (1 Bft)
25.03.2005 16:00 13,7 C 59 % 1017 hPa 0,0 l/m N-NW 7,8 km/h (2 Bft)
25.03.2005 17:00 13,4 C 63 % 1016 hPa 0,0 l/m N-NO 12,6 km/h (3 Bft)
25.03.2005 18:00 11,8 C 71 % 1016 hPa 0,0 l/m NO 7,9 km/h (2 Bft)
25.03.2005 19:00 10,1 C 77 % 1016 hPa 0,0 l/m NO 0,4 km/h (0 Bft)
25.03.2005 20:00 8,2 C 84 % 1016 hPa 0,0 l/m N 0,0 km/h (0 Bft)
25.03.2005 21:00 7,1 C 88 % 1015 hPa 0,0 l/m N 0,0 km/h (0 Bft)
25.03.2005 22:00 6,3 C 91 % 1015 hPa 0,0 l/m N 0,0 km/h (0 Bft)
25.03.2005 23:00 5,8 C 94 % 1015 hPa 0,0 l/m W 0,5 km/h (0 Bft)
26.03.2005 00:00 5,2 C 97 % 1014 hPa 0,0 l/m W-NW 0,5 km/h (0 Bft)
26.03.2005 01:00 4,6 C 98 % 1014 hPa 0,0 l/m N 0,0 km/h (0 Bft)
26.03.2005 02:00 4,2 C 99 % 1014 hPa 0,0 l/m NW 0,7 km/h (0 Bft)
26.03.2005 03:00 3,4 C 99 % 1013 hPa 0,0 l/m NW 1,1 km/h (0 Bft)
26.03.2005 04:00 2,8 C 100 % 1012 hPa 0,0 l/m NW 4,4 km/h (1 Bft)
26.03.2005 05:00 2,7 C 100 % 1012 hPa 0,0 l/m NW 4,6 km/h (1 Bft)
26.03.2005 06:00 3,1 C 100 % 1012 hPa 0,0 l/m N 0,5 km/h (0 Bft)
26.03.2005 07:00 3,4 C 100 % 1012 hPa 0,0 l/m N-NW 1,6 km/h (1 Bft)
26.03.2005 08:00 4,0 C 100 % 1012 hPa 0,0 l/m W 1,0 km/h (0 Bft)
26.03.2005 09:00 5,1 C 100 % 1012 hPa 0,0 l/m N 3,0 km/h (1 Bft)
26.03.2005 10:00 6,2 C 100 % 1011 hPa 0,0 l/m N-NW 1,5 km/h (1 Bft)
26.03.2005 11:00 7,9 C 99 % 1011 hPa 0,0 l/m N 7,1 km/h (2 Bft)
26.03.2005 12:00 10,7 C 82 % 1010 hPa 0,0 l/m N-NO 5,8 km/h (2 Bft)
26.03.2005 13:00 14,0 C 66 % 1009 hPa 0,0 l/m N-NW 6,2 km/h (2 Bft)
26.03.2005 14:00 15,1 C 63 % 1009 hPa 0,0 l/m N 11,8 km/h (2 Bft)
26.03.2005 15:00 14,0 C 69 % 1008 hPa 0,0 l/m N 13,6 km/h (3 Bft)
26.03.2005 16:00 13,1 C 72 % 1008 hPa 0,0 l/m N 12,1 km/h (2 Bft)
26.03.2005 17:00 11,8 C 79 % 1008 hPa 0,0 l/m N-NO 13,4 km/h (3 Bft)
26.03.2005 18:00 10,4 C 88 % 1008 hPa 0,0 l/m N 12,7 km/h (3 Bft)
26.03.2005 19:00 9,6 C 93 % 1008 hPa 0,0 l/m N 10,5 km/h (2 Bft)
26.03.2005 20:00 9,1 C 97 % 1009 hPa 3,0 l/m N-NW 14,5 km/h (3 Bft)
26.03.2005 21:00 8,9 C 100 % 1009 hPa 0,0 l/m N-NO 7,3 km/h (2 Bft)
26.03.2005 22:00 8,7 C 100 % 1008 hPa 0,0 l/m N-NO 2,9 km/h (1 Bft)
26.03.2005 23:00 8,2 C 100 % 1008 hPa 0,0 l/m N 0,0 km/h (0 Bft)
27.03.2005 00:00 7,7 C 100 % 1008 hPa 0,0 l/m N 0,0 km/h (0 Bft)
27.03.2005 01:00 7,9 C 100 % 1008 hPa 0,0 l/m W 2,9 km/h (1 Bft)
27.03.2005 03:00 8,0 C 100 % 1007 hPa 0,0 l/m W 3,8 km/h (1 Bft)
27.03.2005 04:00 8,0 C 100 % 1007 hPa 0,0 l/m W-SW 0,8 km/h (0 Bft)
27.03.2005 05:00 7,8 C 100 % 1007 hPa 0,0 l/m N 0,0 km/h (0 Bft)
27.03.2005 06:00 7,6 C 100 % 1007 hPa 0,0 l/m S 3,7 km/h (1 Bft)
27.03.2005 07:00 7,7 C 100 % 1007 hPa 0,0 l/m S-SW 0,6 km/h (0 Bft)
27.03.2005 08:00 7,8 C 100 % 1007 hPa 0,0 l/m S 3,5 km/h (1 Bft)
27.03.2005 09:00 8,3 C 100 % 1007 hPa 0,0 l/m N 0,2 km/h (0 Bft)
27.03.2005 10:00 9,3 C 100 % 1007 hPa 0,0 l/m N 0,0 km/h (0 Bft)
27.03.2005 11:00 11,7 C 98 % 1008 hPa 0,0 l/m O 3,9 km/h (1 Bft)
27.03.2005 12:00 13,6 C 79 % 1008 hPa 0,0 l/m O 3,0 km/h (1 Bft)
27.03.2005 13:00 13,4 C 74 % 1008 hPa 0,0 l/m W 7,7 km/h (2 Bft)
27.03.2005 14:00 12,6 C 79 % 1008 hPa 0,0 l/m W-SW 9,4 km/h (2 Bft)
27.03.2005 15:00 12,6 C 80 % 1007 hPa 0,0 l/m W-SW 12,4 km/h (3 Bft)
27.03.2005 16:00 13,6 C 70 % 1007 hPa 1,0 l/m W 12,9 km/h (3 Bft)
27.03.2005 17:00 13,1 C 72 % 1007 hPa 0,0 l/m NW 10,6 km/h (2 Bft)
27.03.2005 18:00 12,0 C 77 % 1008 hPa 0,0 l/m NW 5,1 km/h (1 Bft)
27.03.2005 19:00 11,1 C 81 % 1009 hPa 0,0 l/m N 1,4 km/h (1 Bft)
27.03.2005 20:00 10,7 C 85 % 1009 hPa 0,0 l/m N 1,4 km/h (1 Bft)
27.03.2005 21:00 10,3 C 88 % 1010 hPa 0,0 l/m N 0,0 km/h (0 Bft)
27.03.2005 22:00 10,1 C 90 % 1010 hPa 0,0 l/m SW 0,3 km/h (0 Bft)
27.03.2005 23:00 9,8 C 92 % 1011 hPa 0,0 l/m S-SW 4,6 km/h (1 Bft)
Min-Datum _ 22.03.05 21.03.05 26.03.05 - - 21.03.05
_ Min-Zeit 06:12 17:08 22:43 - - 00:26
Minimum _ 0,3 C 43 % 1007 hPa - - 0,0 km/h (0 Bft)
Max-Datum _ 24.03.05 25.03.05 22.03.05 25.03.05 - 25.03.05
_ Max-Zeit 14:31 05:13 22:29 00:40 - 00:16
Maximum _ 17,3 C 100 % 1019 hPa 7,0 l/m - 34,8 km/h
SW (5 Bft)
Durchschnitt _ 9,5 C 81 % 1015 hPa #17,0 l/m N 7,3 km/h (2 Bft)

Durchschnitt Minimum Temp.9,0 C
Durchschnitt Maximum Temp.9,9 C